Time;durP1;ratioP1;P1;durP2;ratioP2;P2;SDS_P1;SDS_P2;PMS_P1;PMS_P2;Temp;Humidity;BMP_temperature;BMP_pressure;BME280_temperature;BME280_humidity;BME280_pressure;Samples;Min_cycle;Max_cycle;Signal;HPM_P1;HPM_P2
2021/12/13 00:00:14;;;;;;;2.27;2.07;;;2.80;95.70;;;2.53;68.86;94976.03;5077056;28;20458;-57
2021/12/13 00:02:45;;;;;;;2.27;2.07;;;2.80;95.70;;;2.50;68.13;94973.59;5073670;28;20562;-57
2021/12/13 00:05:16;;;;;;;2.27;2.03;;;2.80;95.50;;;2.47;68.04;94977.19;5076735;28;20504;-58
2021/12/13 00:07:46;;;;;;;2.20;2.10;;;2.80;95.60;;;2.51;68.41;94988.25;5081461;28;20450;-58
2021/12/13 00:10:17;;;;;;;1.90;1.80;;;2.80;95.70;;;2.49;67.59;94985.75;5078516;28;20454;-57
2021/12/13 00:12:49;;;;;;;2.37;2.17;;;2.80;95.50;;;2.50;67.67;94990.00;5078994;28;20482;-58
2021/12/13 00:15:25;;;;;;;2.30;2.10;;;2.80;95.50;;;2.51;68.27;94986.50;5081149;28;20446;-57
2021/12/13 00:17:52;;;;;;;2.40;2.20;;;2.80;95.50;;;2.53;68.15;94991.59;5080304;28;21040;-57
2021/12/13 00:20:28;;;;;;;2.57;2.47;;;2.80;95.50;;;2.55;68.60;94999.28;5080350;28;20470;-58
2021/12/13 00:22:58;;;;;;;2.97;2.70;;;2.90;95.50;;;2.57;68.26;95006.09;5083380;28;20827;-58
2021/12/13 00:25:28;;;;;;;2.40;2.30;;;2.90;95.40;;;2.57;67.68;95002.63;5082242;28;20499;-56
2021/12/13 00:27:59;;;;;;;1.80;1.70;;;2.90;95.20;;;2.56;67.16;95008.78;5080007;28;20518;-56
2021/12/13 00:30:41;;;;;;;1.87;1.77;;;2.90;95.10;;;2.57;67.59;95003.50;5080064;28;20853;-57
2021/12/13 00:33:16;;;;;;;1.90;1.80;;;2.90;95.20;;;2.57;67.90;94997.44;5074737;28;20512;-56
2021/12/13 00:35:50;;;;;;;2.03;1.93;;;2.90;95.10;;;2.59;67.95;95006.81;5084371;28;20477;-58
2021/12/13 00:38:19;;;;;;;2.37;2.27;;;2.90;95.00;;;2.60;67.41;94998.13;5082261;28;20455;-56
2021/12/13 00:40:50;;;;;;;2.17;2.07;;;2.90;94.90;;;2.62;67.99;94998.84;5082513;28;20547;-57
2021/12/13 00:43:22;;;;;;;2.03;1.60;;;2.90;94.90;;;2.62;67.17;94995.44;5078568;28;20486;-58
2021/12/13 00:46:00;;;;;;;1.63;1.53;;;2.90;94.80;;;2.63;67.40;94997.09;5079804;28;20474;-58
2021/12/13 00:48:31;;;;;;;1.90;1.80;;;2.90;94.60;;;2.63;66.44;95002.28;5074580;28;20451;-58
2021/12/13 00:51:03;;;;;;;1.50;1.40;;;2.90;94.50;;;2.64;66.90;94996.16;5082191;28;20467;-58
2021/12/13 00:53:34;;;;;;;1.70;1.57;;;2.90;94.50;;;2.65;66.63;94990.03;5077460;28;20507;-58
2021/12/13 00:56:01;;;;;;;1.70;1.60;;;3.00;94.50;;;2.66;67.14;94986.53;5078288;28;20467;-57
2021/12/13 00:58:29;;;;;;;1.93;1.83;;;3.00;94.50;;;2.66;66.72;94984.75;5078157;28;20454;-57
2021/12/13 01:00:58;;;;;;;2.10;2.00;;;2.90;94.50;;;2.66;66.77;94989.13;5080712;28;20828;-57
2021/12/13 01:03:29;;;;;;;2.60;2.40;;;3.00;94.50;;;2.65;66.16;94985.69;5081299;28;20489;-57
2021/12/13 01:06:51;;;;;;;1.70;1.60;;;3.00;94.50;;;2.65;66.14;94995.22;5080968;28;20962;-57
2021/12/13 01:10:24;;;;;;;1.97;1.50;;;3.00;94.50;;;2.64;67.12;94980.59;5073670;28;20450;-56
2021/12/13 01:12:55;;;;;;;1.70;1.60;;;2.90;94.50;;;2.65;66.03;94987.44;5072744;28;20835;-57
2021/12/13 01:15:30;;;;;;;2.83;1.80;;;3.00;94.40;;;2.63;65.90;94984.97;5074681;28;20450;-58
2021/12/13 01:18:05;;;;;;;1.80;1.70;;;2.90;94.30;;;2.62;66.50;94991.06;5073885;28;20476;-58
2021/12/13 01:20:44;;;;;;;1.93;1.83;;;2.90;94.30;;;2.61;66.78;94988.56;5073785;28;20442;-58
2021/12/13 01:23:16;;;;;;;1.97;1.87;;;2.90;94.40;;;2.61;65.79;94988.56;5080436;28;21179;-58
2021/12/13 01:25:47;;;;;;;1.97;1.77;;;2.90;94.40;;;2.59;66.07;94980.84;5082745;28;20478;-58
2021/12/13 01:28:22;;;;;;;2.43;2.20;;;2.90;94.50;;;2.61;66.67;94993.75;5077180;28;20442;-58
2021/12/13 01:30:53;;;;;;;2.13;2.00;;;2.90;94.50;;;2.62;66.26;94991.06;5083551;28;20538;-57
2021/12/13 01:33:21;;;;;;;2.20;2.10;;;2.90;94.50;;;2.63;66.50;94984.97;5079944;28;20943;-58
2021/12/13 01:35:50;;;;;;;2.43;1.83;;;2.90;94.50;;;2.65;67.24;94982.25;5078488;28;20470;-58
2021/12/13 01:38:21;;;;;;;1.77;1.67;;;2.90;94.50;;;2.66;67.33;94976.13;5071595;28;20455;-58
2021/12/13 01:40:52;;;;;;;1.83;1.73;;;3.00;94.50;;;2.68;66.81;94979.47;5074225;28;21068;-58
2021/12/13 01:43:24;;;;;;;1.87;1.77;;;3.00;94.50;;;2.71;66.36;94983.66;5081158;28;20467;-56
2021/12/13 01:45:52;;;;;;;1.63;1.53;;;3.00;94.50;;;2.70;67.37;94977.63;5077313;28;20474;-57
2021/12/13 01:48:23;;;;;;;2.00;1.90;;;3.00;94.50;;;2.71;66.73;94981.88;5085160;28;20449;-55
2021/12/13 01:50:53;;;;;;;2.53;2.43;;;3.00;94.50;;;2.71;66.15;94983.66;5082472;28;20468;-57
2021/12/13 01:53:31;;;;;;;2.53;2.43;;;3.00;94.50;;;2.68;67.13;94989.84;5084268;28;20492;-60
2021/12/13 01:55:59;;;;;;;2.97;2.20;;;3.00;94.50;;;2.67;66.77;94983.00;5085334;28;20526;-58
2021/12/13 01:58:38;;;;;;;2.17;1.97;;;3.00;94.90;;;2.68;66.29;94987.25;5083775;28;20525;-57
2021/12/13 02:01:12;;;;;;;2.20;2.10;;;3.00;94.50;;;2.68;66.36;94987.25;5080126;28;20474;-57
2021/12/13 02:03:54;;;;;;;2.33;2.23;;;3.00;94.50;;;2.69;67.00;94975.97;5084470;28;20477;-57
2021/12/13 02:06:40;;;;;;;2.57;2.40;;;3.00;94.50;;;2.67;66.31;94975.22;5078906;28;20475;-57
2021/12/13 02:09:12;;;;;;;2.27;2.17;;;3.00;94.50;;;2.64;66.57;94981.41;5083174;28;20508;-57
2021/12/13 02:11:40;;;;;;;2.17;2.07;;;3.00;94.50;;;2.62;66.12;94990.25;5084021;28;21066;-57
2021/12/13 02:14:14;;;;;;;2.50;2.30;;;2.90;94.50;;;2.59;66.63;94977.44;5085819;28;20446;-57
2021/12/13 02:17:03;;;;;;;2.80;2.60;;;2.90;94.50;;;2.58;67.05;94986.13;5080754;28;20478;-57
2021/12/13 02:19:41;;;;;;;2.43;2.23;;;2.90;94.50;;;2.55;66.33;94984.53;5079688;28;20527;-58
2021/12/13 02:22:34;;;;;;;2.10;2.00;;;2.90;94.50;;;2.55;66.73;94988.91;5080043;28;20492;-58
2021/12/13 02:25:13;;;;;;;2.17;2.07;;;2.80;94.40;;;2.56;67.04;94982.81;5074858;28;20439;-57
2021/12/13 02:27:43;;;;;;;2.03;1.93;;;2.80;94.50;;;2.56;67.12;94969.81;5083024;28;20467;-60
2021/12/13 02:30:17;;;;;;;2.23;2.13;;;2.90;94.50;;;2.58;66.67;94976.59;5077719;28;20450;-57
2021/12/13 02:32:44;;;;;;;2.07;1.97;;;2.90;94.50;;;2.59;67.29;94974.84;5080837;28;20451;-57
2021/12/13 02:35:12;;;;;;;2.20;2.10;;;2.90;94.70;;;2.60;66.46;94981.69;5080151;28;20458;-58
2021/12/13 02:37:41;;;;;;;2.53;2.33;;;2.90;94.60;;;2.61;67.04;94983.38;5081014;28;20478;-58
2021/12/13 02:40:09;;;;;;;1.87;1.77;;;2.90;94.60;;;2.61;66.48;94980.78;5079889;28;20454;-58
2021/12/13 02:42:37;;;;;;;2.07;1.97;;;2.90;94.60;;;2.61;66.81;94998.94;5082158;28;20497;-58
2021/12/13 02:45:13;;;;;;;2.17;2.07;;;2.90;94.50;;;2.59;67.59;94993.84;5081625;28;20938;-57
2021/12/13 02:47:54;;;;;;;2.97;2.77;;;2.90;94.60;;;2.58;66.70;94991.34;5083377;28;20446;-58
2021/12/13 02:50:28;;;;;;;1.90;1.80;;;2.90;94.70;;;2.55;67.58;94984.53;5072573;28;20508;-58
2021/12/13 02:52:58;;;;;;;2.37;2.17;;;2.90;94.70;;;2.56;67.43;94990.59;5077537;28;20455;-58
2021/12/13 02:55:28;;;;;;;2.40;2.30;;;2.90;94.80;;;2.55;67.19;94994.09;5075339;28;20454;-59
2021/12/13 02:57:56;;;;;;;2.67;2.50;;;2.80;94.80;;;2.53;66.84;94995.97;5086044;28;20451;-59
2021/12/13 03:00:27;;;;;;;2.80;2.67;;;2.80;94.80;;;2.54;67.54;94995.00;5082545;28;20975;-58
2021/12/13 03:02:57;;;;;;;2.73;2.57;;;2.80;94.90;;;2.51;67.20;94981.31;5083094;28;21017;-58
2021/12/13 03:05:28;;;;;;;2.73;2.40;;;2.80;94.80;;;2.48;67.35;94981.47;5086072;28;20969;-59
2021/12/13 03:07:59;;;;;;;2.37;2.27;;;2.80;95.00;;;2.50;67.12;94991.78;5084647;28;20447;-58
2021/12/13 03:10:34;;;;;;;2.50;2.40;;;2.80;95.00;;;2.48;67.46;94989.25;5078517;28;20473;-57
2021/12/13 03:13:01;;;;;;;2.50;2.30;;;2.80;95.00;;;2.46;67.22;94990.25;5080535;28;21003;-58
2021/12/13 03:15:31;;;;;;;2.70;2.60;;;2.80;95.00;;;2.46;67.11;94988.53;5084118;28;20761;-58
2021/12/13 03:18:00;;;;;;;2.80;2.60;;;2.80;95.10;;;2.46;66.85;94985.94;5079149;28;20520;-56
2021/12/13 03:20:55;;;;;;;2.13;2.03;;;2.80;95.00;;;2.46;67.75;94985.94;5080847;28;20456;-58
2021/12/13 03:23:44;;;;;;;2.60;2.40;;;2.80;95.10;;;2.47;67.11;94987.59;5079204;28;20479;-58
2021/12/13 03:26:54;;;;;;;2.40;2.30;;;2.80;95.10;;;2.48;67.29;94996.22;5039213;28;21018;-57
2021/12/13 03:29:28;;;;;;;2.60;2.20;;;2.80;95.10;;;2.48;67.30;94988.44;5084954;28;20445;-58
2021/12/13 03:31:57;;;;;;;2.43;2.33;;;2.80;95.10;;;2.51;67.15;94989.09;5080302;28;20470;-58
2021/12/13 03:34:32;;;;;;;2.27;2.07;;;2.80;95.10;;;2.51;67.25;94989.09;5075908;28;20543;-59
2021/12/13 03:37:01;;;;;;;2.23;2.13;;;2.80;95.00;;;2.50;67.38;94997.78;5079533;28;20523;-58
2021/12/13 03:39:33;;;;;;;2.27;2.07;;;2.80;95.00;;;2.51;67.52;94990.84;5077932;28;20484;-59
2021/12/13 03:42:03;;;;;;;2.60;2.17;;;2.80;95.00;;;2.48;66.92;94991.84;5075970;28;20467;-57
2021/12/13 03:44:36;;;;;;;2.30;2.20;;;2.80;94.90;;;2.47;67.61;94997.97;5081219;28;20458;-61
2021/12/13 03:47:08;;;;;;;2.30;2.20;;;2.80;95.00;;;2.48;67.26;94999.66;5079111;28;20489;-58
2021/12/13 03:49:40;;;;;;;3.17;2.97;;;2.80;95.10;;;2.50;67.32;95002.16;5078153;28;20447;-57
2021/12/13 03:52:08;;;;;;;2.27;2.10;;;2.80;95.10;;;2.49;67.60;94998.72;5079384;28;20466;-57
2021/12/13 03:54:38;;;;;;;2.23;2.13;;;2.80;95.00;;;2.49;67.05;95000.47;5079470;28;20515;-57
2021/12/13 03:57:05;;;;;;;2.57;2.47;;;2.80;95.00;;;2.47;67.03;94991.94;5080701;28;20470;-58
2021/12/13 03:59:34;;;;;;;3.33;3.03;;;2.80;95.10;;;2.47;67.97;94994.53;5079637;28;20456;-58
2021/12/13 04:02:04;;;;;;;1.93;1.77;;;2.80;95.10;;;2.46;67.19;94991.13;5075612;28;20499;-58
2021/12/13 04:04:34;;;;;;;2.47;2.37;;;2.80;95.10;;;2.42;67.49;94989.63;5080807;28;20453;-57
2021/12/13 04:07:07;;;;;;;5.70;2.67;;;2.70;95.10;;;2.37;67.60;94999.44;5079651;28;21002;-58
2021/12/13 04:09:36;;;;;;;2.53;2.43;;;2.70;95.00;;;2.33;67.86;95000.50;5075822;28;20470;-57
2021/12/13 04:12:06;;;;;;;2.67;2.47;;;2.70;95.10;;;2.30;68.31;95005.88;5079561;28;21029;-58
2021/12/13 04:14:48;;;;;;;2.10;2.00;;;2.70;95.20;;;2.27;68.22;95006.06;5080027;28;20834;-59
2021/12/13 04:17:33;;;;;;;2.07;1.97;;;2.60;95.20;;;2.26;68.23;95004.38;5084304;28;20470;-59
2021/12/13 04:20:01;;;;;;;2.47;2.37;;;2.60;95.30;;;2.24;67.96;95007.06;5084764;28;20443;-58
2021/12/13 04:22:31;;;;;;;2.40;2.30;;;2.60;95.30;;;2.20;68.52;95008.16;5078589;28;20471;-58
2021/12/13 04:25:01;;;;;;;3.17;2.97;;;2.50;95.40;;;2.18;68.05;95014.34;5083154;28;20495;-58
2021/12/13 04:27:32;;;;;;;2.83;2.63;;;2.50;95.60;;;2.15;68.04;95005.81;5082572;28;20462;-58
2021/12/13 04:30:03;;;;;;;2.60;2.40;;;2.50;95.60;;;2.16;68.51;95004.06;5077974;28;20443;-58
2021/12/13 04:32:32;;;;;;;2.97;2.30;;;2.50;95.70;;;2.17;68.72;95015.25;5080052;28;20474;-58
2021/12/13 04:35:03;;;;;;;3.10;2.87;;;2.50;96.00;;;2.18;68.99;95016.94;5076107;28;20947;-59
2021/12/13 04:37:33;;;;;;;2.80;2.70;;;2.50;95.90;;;2.18;68.52;95022.13;5080602;28;20552;-57
2021/12/13 04:40:08;;;;;;;3.20;3.00;;;2.50;95.90;;;2.17;69.12;95028.22;5079481;28;20457;-57
2021/12/13 04:42:35;;;;;;;3.13;2.80;;;2.50;96.10;;;2.21;71.87;95027.97;5080244;28;20887;-56
2021/12/13 04:45:06;;;;;;;2.87;2.77;;;2.50;98.40;;;2.32;70.99;95033.44;5081128;28;20514;-56
2021/12/13 04:47:35;;;;;;;2.83;2.63;;;2.60;97.90;;;2.40;71.14;95033.00;5080427;28;20477;-58
2021/12/13 04:50:12;;;;;;;3.57;3.00;;;2.70;98.00;;;2.44;71.12;95031.88;5074189;28;20455;-57
2021/12/13 04:52:39;;;;;;;4.17;3.53;;;2.70;98.00;;;2.49;71.32;95040.28;5076270;28;20470;-56
2021/12/13 04:55:14;;;;;;;2.97;2.77;;;2.80;98.10;;;2.54;71.35;95040.00;5076632;28;20446;-56
2021/12/13 04:57:42;;;;;;;3.30;3.10;;;2.80;98.20;;;2.60;70.49;95038.81;5081131;28;20449;-57
2021/12/13 05:00:14;;;;;;;3.37;3.10;;;2.90;97.10;;;2.60;70.07;95029.28;5077635;28;20477;-57
2021/12/13 05:02:46;;;;;;;4.07;3.03;;;2.90;97.10;;;2.61;69.45;95024.91;5081890;28;21048;-59
2021/12/13 05:05:13;;;;;;;5.37;2.60;;;2.90;97.10;;;2.60;70.22;95029.28;5077290;28;20435;-57
2021/12/13 05:07:42;;;;;;;3.20;3.00;;;2.90;97.10;;;2.59;70.29;95035.38;5079637;28;21042;-58
2021/12/13 05:10:11;;;;;;;2.70;2.50;;;2.90;97.40;;;2.55;69.19;95035.66;5075123;28;20982;-56
2021/12/13 05:12:38;;;;;;;3.83;3.50;;;2.90;96.50;;;2.46;69.06;95027.47;5083125;28;21360;-56
2021/12/13 05:15:08;;;;;;;2.43;2.33;;;2.80;96.30;;;2.43;69.07;95038.03;5072855;28;20524;-57
2021/12/13 05:17:41;;;;;;;3.70;3.43;;;2.80;96.60;;;2.41;69.94;95039.84;5076530;28;20558;-57
2021/12/13 05:20:15;;;;;;;3.47;2.97;;;2.70;96.70;;;2.42;70.12;95040.69;5076687;28;20993;-57
2021/12/13 05:22:48;;;;;;;2.90;2.70;;;2.70;97.00;;;2.41;69.47;95039.84;5080037;28;20450;-57
2021/12/13 05:25:27;;;;;;;3.37;3.10;;;2.70;96.70;;;2.36;69.30;95046.25;5079322;28;20873;-58
2021/12/13 05:28:00;;;;;;;3.13;2.90;;;2.70;96.30;;;2.29;69.06;95053.50;5081404;28;20442;-56
2021/12/13 05:30:28;;;;;;;4.43;3.00;;;2.60;96.50;;;2.24;68.56;95042.56;5081075;28;20442;-57
2021/12/13 05:32:58;;;;;;;3.00;2.80;;;2.60;96.30;;;2.18;70.09;95050.69;5083078;28;20454;-56
2021/12/13 05:35:31;;;;;;;3.73;3.30;;;2.50;96.60;;;2.17;69.91;95056.78;5077714;28;20454;-57
2021/12/13 05:38:00;;;;;;;2.77;2.57;;;2.50;96.90;;;2.16;69.17;95055.94;5081815;28;20548;-57
2021/12/13 05:40:36;;;;;;;3.13;2.63;;;2.50;96.90;;;2.17;69.60;95043.81;5078618;28;20517;-58
2021/12/13 05:43:18;;;;;;;3.40;2.90;;;2.50;96.90;;;2.19;69.25;95044.56;5079912;28;20548;-57
2021/12/13 05:45:49;;;;;;;3.07;2.87;;;2.50;96.90;;;2.18;69.56;95053.28;5080742;28;21048;-58
2021/12/13 05:48:18;;;;;;;2.63;2.40;;;2.50;96.90;;;2.14;69.07;95066.41;5079590;28;20865;-57
2021/12/13 05:50:49;;;;;;;2.80;2.70;;;2.50;96.50;;;2.07;69.99;95065.06;5086386;28;20823;-59
2021/12/13 05:53:20;;;;;;;2.60;2.50;;;2.40;96.50;;;2.06;69.92;95060.81;5078624;28;20567;-58
2021/12/13 05:56:00;;;;;;;3.00;2.80;;;2.40;96.90;;;2.08;69.38;95060.72;5079711;28;20466;-58
2021/12/13 05:58:47;;;;;;;3.47;3.00;;;2.40;96.90;;;2.11;69.40;95066.59;5082596;28;20450;-57
2021/12/13 06:01:19;;;;;;;3.10;2.20;;;2.40;96.90;;;2.13;69.03;95066.50;5078223;28;20470;-58
2021/12/13 06:03:53;;;;;;;3.03;2.50;;;2.40;96.70;;;2.15;69.76;95069.84;5078888;28;20524;-57
2021/12/13 06:06:25;;;;;;;2.77;2.53;;;2.40;96.60;;;2.16;69.60;95076.72;5083100;28;20462;-58
2021/12/13 06:08:54;;;;;;;3.10;2.67;;;2.50;96.60;;;2.18;69.11;95069.66;5078930;28;20438;-57
2021/12/13 06:11:32;;;;;;;2.33;2.10;;;2.50;96.70;;;2.21;69.77;95068.66;5080691;28;20489;-58
2021/12/13 06:14:16;;;;;;;6.40;3.23;;;2.50;96.60;;;2.26;69.49;95071.84;5082961;28;20438;-59
2021/12/13 06:16:50;;;;;;;5.43;3.13;;;2.60;96.60;;;2.27;68.91;95087.31;5079745;28;20569;-57
2021/12/13 06:19:27;;;;;;;3.30;2.60;;;2.60;96.80;;;2.27;70.03;95089.09;5079256;28;20447;-57
2021/12/13 06:22:07;;;;;;;2.30;2.20;;;2.60;96.40;;;2.31;69.20;95101.81;5084092;28;20850;-58
2021/12/13 06:24:36;;;;;;;2.50;2.30;;;2.60;96.50;;;2.31;69.02;95095.81;5075978;28;20865;-58
2021/12/13 06:27:15;;;;;;;2.87;2.67;;;2.60;96.50;;;2.36;69.41;95098.16;5077454;28;20466;-57
2021/12/13 06:30:06;;;;;;;2.30;2.10;;;2.70;96.40;;;2.36;69.15;95101.56;5076159;28;20446;-56
2021/12/13 06:32:43;;;;;;;3.30;3.00;;;2.70;96.40;;;2.39;68.92;95098.81;5082084;28;20535;-57
2021/12/13 06:35:46;;;;;;;2.93;2.73;;;2.70;96.50;;;2.44;69.45;95107.16;5079370;28;20510;-58
2021/12/13 06:38:44;;;;;;;3.87;2.43;;;2.70;96.30;;;2.46;68.61;95101.88;5039988;28;20805;-58
2021/12/13 06:41:39;;;;;;;3.30;3.00;;;2.80;96.30;;;2.44;68.59;95101.97;5035076;28;20501;-59
2021/12/13 06:44:16;;;;;;;3.00;2.80;;;2.70;96.20;;;2.44;68.18;95112.34;5068102;28;20497;-58
2021/12/13 06:46:47;;;;;;;2.67;2.47;;;2.80;96.20;;;2.41;68.88;95111.69;5078233;28;20470;-57
2021/12/13 06:49:26;;;;;;;2.63;2.53;;;2.70;96.20;;;2.41;68.50;95112.53;5079691;28;20439;-57
2021/12/13 06:51:57;;;;;;;2.83;2.63;;;2.70;96.30;;;2.41;68.35;95122.91;5074968;28;20689;-58
2021/12/13 06:54:31;;;;;;;3.37;3.07;;;2.70;96.20;;;2.37;68.88;95123.16;5079760;28;20450;-58
2021/12/13 06:57:01;;;;;;;2.70;2.50;;;2.70;96.10;;;2.32;69.34;95123.41;5079325;28;20516;-57
2021/12/13 06:59:30;;;;;;;3.47;3.17;;;2.70;96.30;;;2.31;68.50;95126.94;5079868;28;20455;-58
2021/12/13 07:02:11;;;;;;;2.80;2.33;;;2.70;96.30;;;2.28;68.95;95122.75;5077168;28;20466;-58
2021/12/13 07:04:53;;;;;;;3.27;3.00;;;2.60;96.40;;;2.29;69.28;95133.97;5078666;28;20475;-57
2021/12/13 07:07:22;;;;;;;3.00;2.80;;;2.60;96.50;;;2.29;68.62;95129.63;5082282;28;20462;-56
2021/12/13 07:09:53;;;;;;;3.47;2.90;;;2.60;96.50;;;2.34;69.52;95129.38;5080396;28;20458;-59
2021/12/13 07:12:21;;;;;;;3.10;3.00;;;2.70;96.60;;;2.37;69.53;95129.22;5082960;28;21036;-58
2021/12/13 07:14:50;;;;;;;2.70;2.50;;;2.70;96.50;;;2.40;69.80;95139.44;5077716;28;20493;-59
2021/12/13 07:17:19;;;;;;;2.10;2.00;;;2.70;96.60;;;2.43;69.07;95123.69;5075525;28;20478;-59
2021/12/13 07:19:50;;;;;;;2.70;2.60;;;2.70;96.60;;;2.45;68.94;95128.78;5078061;28;20576;-57
2021/12/13 07:22:20;;;;;;;2.30;2.10;;;2.70;96.50;;;2.47;68.60;95125.16;5081601;28;20471;-59
2021/12/13 07:24:49;;;;;;;2.43;2.33;;;2.80;96.50;;;2.47;68.30;95126.94;5078011;28;20591;-58
2021/12/13 07:27:18;;;;;;;2.50;2.40;;;2.80;96.30;;;2.44;69.18;95133.13;5082696;28;20470;-57
2021/12/13 07:29:49;;;;;;;3.13;2.87;;;2.80;96.30;;;2.44;68.65;95127.94;5079287;28;20962;-58
2021/12/13 07:32:20;;;;;;;4.90;2.50;;;2.70;96.20;;;2.39;68.60;95135.16;5077384;28;20471;-58
2021/12/13 07:35:03;;;;;;;4.80;2.90;;;2.70;96.20;;;2.39;68.68;95140.34;5085971;28;20445;-57
2021/12/13 07:37:45;;;;;;;3.10;3.00;;;2.70;96.40;;;2.42;69.63;95149.72;5083408;28;20471;-58
2021/12/13 07:40:40;;;;;;;2.50;2.30;;;2.70;96.50;;;2.45;68.54;95155.56;5084072;28;20435;-58
2021/12/13 07:43:18;;;;;;;6.23;2.87;;;2.70;96.50;;;2.45;69.39;95155.56;5082057;28;20470;-59
2021/12/13 07:45:55;;;;;;;2.97;2.70;;;2.80;96.30;;;2.43;69.11;95161.75;5085546;28;20474;-58
2021/12/13 07:48:26;;;;;;;3.30;2.10;;;2.70;96.30;;;2.44;68.91;95163.44;5081395;28;20930;-57
2021/12/13 07:51:05;;;;;;;2.80;2.60;;;2.70;96.60;;;2.46;68.44;95167.66;5081603;28;20471;-59
2021/12/13 07:53:44;;;;;;;2.70;2.50;;;2.80;96.50;;;2.47;69.71;95166.69;5080692;28;20452;-57
2021/12/13 07:56:12;;;;;;;3.03;2.77;;;2.80;96.50;;;2.48;69.18;95170.16;5080412;28;20486;-58
2021/12/13 07:58:42;;;;;;;6.83;2.80;;;2.80;96.60;;;2.50;69.13;95166.53;5082449;28;20547;-59
2021/12/13 08:01:16;;;;;;;3.20;3.00;;;2.80;96.60;;;2.53;69.29;95172.50;5075347;28;21014;-59
2021/12/13 08:03:56;;;;;;;3.17;2.97;;;2.80;96.50;;;2.56;69.51;95177.53;5083566;28;20474;-58
2021/12/13 08:06:26;;;;;;;3.33;3.00;;;2.80;96.50;;;2.57;68.55;95171.41;5078887;28;20467;-56
2021/12/13 08:08:58;;;;;;;2.97;2.60;;;2.90;96.50;;;2.58;68.85;95173.91;5080209;28;20451;-58
2021/12/13 08:11:44;;;;;;;4.60;2.83;;;2.90;96.40;;;2.59;68.77;95170.41;5082860;28;20470;-59
2021/12/13 08:14:12;;;;;;;2.20;2.10;;;2.90;96.50;;;2.63;68.59;95174.50;5082500;28;20458;-57
2021/12/13 08:16:43;;;;;;;3.10;2.90;;;2.90;96.60;;;2.67;69.48;95176.00;5077220;28;20471;-57
2021/12/13 08:19:16;;;;;;;2.23;2.03;;;2.90;96.50;;;2.69;69.42;95179.34;5076295;28;20578;-57
2021/12/13 08:21:49;;;;;;;3.30;2.27;;;3.00;96.50;;;2.70;68.49;95185.41;5077018;28;20475;-57
2021/12/13 08:24:31;;;;;;;2.67;2.47;;;3.00;96.50;;;2.72;69.30;95175.75;5080952;28;20475;-57
2021/12/13 08:27:08;;;;;;;2.33;2.23;;;3.00;96.30;;;2.68;68.95;95177.69;5073134;28;20469;-56
2021/12/13 08:29:38;;;;;;;2.90;2.70;;;3.00;96.20;;;2.63;68.14;95174.50;5072290;28;21060;-57
2021/12/13 08:32:12;;;;;;;2.83;2.63;;;3.00;96.10;;;2.62;69.27;95182.38;5073783;28;20478;-56
2021/12/13 08:34:44;;;;;;;2.50;2.30;;;2.90;96.20;;;2.63;68.79;95173.66;5077189;28;20455;-57
2021/12/13 08:37:22;;;;;;;2.90;2.70;;;2.90;96.20;;;2.60;68.74;95176.41;5083840;28;20469;-58
2021/12/13 08:39:57;;;;;;;2.77;2.67;;;2.90;96.10;;;2.55;69.20;95188.81;5079699;28;20512;-58
2021/12/13 08:42:26;;;;;;;2.73;2.53;;;2.90;96.10;;;2.53;68.96;95175.09;5080527;28;21053;-58
2021/12/13 08:44:58;;;;;;;4.37;3.60;;;2.80;96.00;;;2.49;68.75;95188.25;5075428;28;20950;-57
2021/12/13 08:47:35;;;;;;;3.17;2.97;;;2.80;96.00;;;2.49;68.36;95180.47;5079533;28;20501;-58
2021/12/13 08:50:07;;;;;;;7.20;4.20;;;2.80;96.00;;;2.50;69.20;95178.69;5073449;28;20442;-57
2021/12/13 08:52:37;;;;;;;2.70;2.50;;;2.80;96.20;;;2.53;68.59;95177.69;5080064;28;20459;-59
2021/12/13 08:55:14;;;;;;;4.63;3.47;;;2.80;96.10;;;2.56;68.40;95186.16;5079355;28;20450;-58
2021/12/13 08:57:47;;;;;;;3.60;3.40;;;2.90;96.20;;;2.61;69.19;95191.91;5087462;28;20985;-60
2021/12/13 09:00:37;;;;;;;3.40;2.43;;;2.90;96.20;;;2.66;68.38;95181.28;5083426;28;20434;-58
2021/12/13 09:03:36;;;;;;;2.83;2.63;;;2.90;95.90;;;2.69;68.61;95183.72;5082846;28;20445;-57
2021/12/13 09:06:13;;;;;;;3.40;2.80;;;3.00;96.10;;;2.72;69.61;95178.34;5086768;28;20493;-57
2021/12/13 09:08:44;;;;;;;3.33;2.80;;;3.00;96.80;;;2.79;69.84;95184.88;5084777;28;20490;-56
2021/12/13 09:11:25;;;;;;;2.87;2.67;;;3.10;96.70;;;2.84;68.93;95177.66;5086510;28;20472;-57
2021/12/13 09:13:58;;;;;;;3.10;2.90;;;3.10;96.70;;;2.86;68.02;95177.59;5082308;28;20445;-57
2021/12/13 09:16:30;;;;;;;5.67;3.60;;;3.20;96.20;;;2.81;68.71;95172.63;5080979;28;20470;-58
2021/12/13 09:19:17;;;;;;;3.70;3.20;;;3.10;95.90;;;2.78;68.24;95172.81;5081748;28;20447;-58
2021/12/13 09:21:52;;;;;;;2.80;2.60;;;3.10;95.80;;;2.73;68.50;95171.38;5078618;28;20540;-59
2021/12/13 09:24:30;;;;;;;6.70;3.07;;;3.00;95.70;;;2.68;68.30;95167.31;5085821;28;20519;-57
2021/12/13 09:27:22;;;;;;;3.67;3.47;;;3.00;95.70;;;2.65;68.39;95162.28;5083229;28;20532;-58
2021/12/13 09:29:57;;;;;;;4.20;3.80;;;2.90;95.80;;;2.63;68.25;95164.13;5081319;28;20453;-56
2021/12/13 09:32:36;;;;;;;4.33;3.93;;;2.90;95.80;;;2.63;67.98;95161.53;5085771;28;20892;-58
2021/12/13 09:35:43;;;;;;;3.70;3.30;;;2.90;96.00;;;2.67;68.42;95164.78;5078515;28;20496;-58
2021/12/13 09:38:37;;;;;;;4.30;3.90;;;2.90;96.10;;;2.72;68.84;95160.16;5079649;28;20538;-59
2021/12/13 09:41:12;;;;;;;7.07;4.13;;;3.00;96.10;;;2.77;67.92;95152.94;5080306;28;20473;-58
2021/12/13 09:43:45;;;;;;;3.97;3.67;;;3.10;96.10;;;2.82;68.76;95155.28;5085692;28;20444;-60
2021/12/13 09:46:14;;;;;;;3.93;3.63;;;3.10;96.10;;;2.90;68.31;95160.91;5083024;28;20569;-57
2021/12/13 09:48:44;;;;;;;5.23;3.20;;;3.10;96.10;;;2.97;67.82;95161.41;5082498;28;20447;-57
2021/12/13 09:51:16;;;;;;;3.73;3.43;;;3.20;96.00;;;3.01;68.31;95157.72;5081770;28;20937;-57
2021/12/13 09:53:43;;;;;;;3.30;3.10;;;3.30;95.90;;;3.04;67.77;95150.56;5076400;28;20454;-59
2021/12/13 09:56:14;;;;;;;3.50;3.30;;;3.30;95.90;;;3.09;68.37;95160.69;5085742;28;20470;-59
2021/12/13 09:58:44;;;;;;;4.07;3.77;;;3.40;95.90;;;3.12;68.07;95157.94;5087918;28;20517;-59
2021/12/13 10:01:14;;;;;;;2.90;2.70;;;3.40;95.80;;;3.14;67.52;95156.06;5079881;28;20466;-59
2021/12/13 10:03:51;;;;;;;4.00;3.60;;;3.40;95.60;;;3.10;68.06;95157.19;5082291;28;20443;-60
2021/12/13 10:06:23;;;;;;;5.47;3.43;;;3.40;95.40;;;3.08;67.69;95156.41;5082860;28;21012;-59
2021/12/13 10:08:54;;;;;;;3.40;3.10;;;3.40;95.40;;;3.06;67.53;95150.47;5084210;28;20455;-58
2021/12/13 10:11:24;;;;;;;3.80;3.50;;;3.30;95.30;;;3.07;67.76;95151.31;5080915;28;20480;-59
2021/12/13 10:13:51;;;;;;;4.70;4.17;;;3.40;95.50;;;3.08;67.68;95153.81;5087795;28;20511;-58
2021/12/13 10:16:21;;;;;;;4.33;3.97;;;3.40;95.60;;;3.13;67.87;95146.63;5082365;28;20471;-58
2021/12/13 10:18:50;;;;;;;3.33;3.13;;;3.40;95.70;;;3.20;67.02;95147.09;5085405;28;20454;-59
2021/12/13 10:21:22;;;;;;;4.33;3.93;;;3.40;95.50;;;3.26;67.04;95145.91;5080702;28;20554;-59
2021/12/13 10:23:52;;;;;;;3.53;3.00;;;3.50;95.60;;;3.31;67.51;95138.69;5078879;28;20458;-59
2021/12/13 10:26:20;;;;;;;4.27;3.53;;;3.60;95.60;;;3.38;67.25;95145.19;5078777;28;20494;-59
2021/12/13 10:28:59;;;;;;;3.77;3.57;;;3.60;95.20;;;3.43;67.03;95137.13;5077916;28;20442;-60
2021/12/13 10:31:32;;;;;;;3.57;3.27;;;3.70;95.40;;;3.44;67.08;95134.44;5079122;28;20865;-60
2021/12/13 10:34:00;;;;;;;5.40;3.53;;;3.70;95.30;;;3.47;67.00;95136.88;5080914;28;20471;-58
2021/12/13 10:36:28;;;;;;;3.20;3.03;;;3.70;95.30;;;3.52;67.44;95137.41;5085310;28;20474;-58
2021/12/13 10:38:58;;;;;;;4.80;3.90;;;3.80;95.40;;;3.56;66.88;95138.06;5081536;28;20583;-58
2021/12/13 10:41:28;;;;;;;3.37;3.17;;;3.80;94.90;;;3.54;66.59;95135.56;5083890;28;20528;-58
2021/12/13 10:43:58;;;;;;;3.47;3.17;;;3.80;95.00;;;3.54;66.39;95129.53;5083164;28;20568;-58
2021/12/13 10:46:29;;;;;;;3.93;3.63;;;3.80;94.90;;;3.48;66.33;95133.31;5081441;28;20494;-57
2021/12/13 10:48:58;;;;;;;4.20;3.90;;;3.80;94.90;;;3.48;67.42;95125.53;5085269;28;20450;-58
2021/12/13 10:51:29;;;;;;;6.13;3.90;;;3.80;95.00;;;3.46;66.86;95131.75;5074383;28;20479;-58
2021/12/13 10:53:58;;;;;;;6.37;4.13;;;3.80;94.90;;;3.41;66.62;95125.06;5084683;28;21371;-59
2021/12/13 10:56:28;;;;;;;5.87;3.70;;;3.70;94.80;;;3.38;67.36;95127.84;5083739;28;20583;-58
2021/12/13 10:59:01;;;;;;;3.50;3.30;;;3.70;95.20;;;3.41;67.31;95129.44;5082160;28;20860;-57
2021/12/13 11:01:30;;;;;;;5.17;3.67;;;3.70;95.40;;;3.39;66.56;95120.84;5080711;28;20793;-58